Time;durP1;ratioP1;P1;durP2;ratioP2;P2;SDS_P1;SDS_P2;PMS_P1;PMS_P2;Temp;Humidity;BMP_temperature;BMP_pressure;BME280_temperature;BME280_humidity;BME280_pressure;Samples;Min_cycle;Max_cycle;Signal;HPM_P1;HPM_P2
2023/07/24 00:02:09;;;;;;;3.27;2.00;;;18.90;99.90;;;;;;5126428;27;21091;-75
2023/07/24 00:04:38;;;;;;;3.20;2.13;;;19.00;99.90;;;;;;5116810;27;20536;-75
2023/07/24 00:07:06;;;;;;;2.00;1.80;;;19.00;99.90;;;;;;5123923;27;20876;-76
2023/07/24 00:09:33;;;;;;;3.07;1.43;;;19.00;99.90;;;;;;5122462;27;20456;-75
2023/07/24 00:11:59;;;;;;;2.70;1.50;;;18.90;99.90;;;;;;5124226;27;20956;-77
2023/07/24 00:14:26;;;;;;;4.80;1.83;;;18.80;99.90;;;;;;5124650;27;20485;-74
2023/07/24 00:16:53;;;;;;;2.50;2.07;;;18.80;99.90;;;;;;5118555;27;20469;-74
2023/07/24 00:19:22;;;;;;;2.10;1.87;;;18.80;99.90;;;;;;5127466;27;20454;-76
2023/07/24 00:21:49;;;;;;;2.37;1.80;;;18.90;99.90;;;;;;5118920;27;20449;-77
2023/07/24 00:24:15;;;;;;;2.60;1.90;;;18.90;99.90;;;;;;5122842;27;20481;-75
2023/07/24 00:26:42;;;;;;;3.60;2.07;;;18.80;99.90;;;;;;5124755;27;20495;-75
2023/07/24 00:29:09;;;;;;;2.20;1.70;;;18.70;99.90;;;;;;5125499;27;20898;-75
2023/07/24 00:31:36;;;;;;;1.70;1.60;;;18.60;99.90;;;;;;5122477;27;20498;-77
2023/07/24 00:34:04;;;;;;;4.40;2.60;;;18.60;99.90;;;;;;5123124;27;20461;-75
2023/07/24 00:36:33;;;;;;;2.53;1.90;;;18.70;99.90;;;;;;5125344;27;20940;-77
2023/07/24 00:39:00;;;;;;;3.60;2.50;;;18.60;99.90;;;;;;5126815;27;20974;-75
2023/07/24 00:41:28;;;;;;;2.67;2.10;;;18.50;99.90;;;;;;5119245;27;20499;-76
2023/07/24 00:43:54;;;;;;;1.70;1.60;;;18.50;99.90;;;;;;5127022;27;20526;-76
2023/07/24 00:46:22;;;;;;;3.77;1.70;;;18.50;99.90;;;;;;5120705;27;20454;-75
2023/07/24 00:48:49;;;;;;;1.70;1.60;;;18.40;99.90;;;;;;5125759;27;20454;-75
2023/07/24 00:51:17;;;;;;;2.90;2.03;;;18.40;99.90;;;;;;5120263;27;20488;-76
2023/07/24 00:53:47;;;;;;;2.63;1.63;;;18.40;99.90;;;;;;5122690;27;20465;-75
2023/07/24 00:56:14;;;;;;;2.70;2.30;;;18.40;99.90;;;;;;5122417;27;21424;-77
2023/07/24 00:58:41;;;;;;;6.67;2.23;;;18.50;99.90;;;;;;5123471;27;20486;-79
2023/07/24 01:01:10;;;;;;;3.67;2.43;;;18.40;99.90;;;;;;5124662;27;20505;-76
2023/07/24 01:03:38;;;;;;;4.30;2.43;;;18.40;99.90;;;;;;5124912;27;20535;-77
2023/07/24 01:06:05;;;;;;;4.00;2.50;;;18.50;99.90;;;;;;5117136;27;20497;-77
2023/07/24 01:08:32;;;;;;;3.80;3.13;;;18.40;99.90;;;;;;5119133;27;20622;-77
2023/07/24 01:11:07;;;;;;;4.40;2.57;;;18.40;99.90;;;;;;5119161;27;20449;-77
2023/07/24 01:13:41;;;;;;;2.77;2.13;;;18.50;99.90;;;;;;5123152;27;20440;-76
2023/07/24 01:16:13;;;;;;;9.50;1.83;;;18.40;99.90;;;;;;5122188;27;20553;-75
2023/07/24 01:18:41;;;;;;;2.93;2.63;;;18.40;99.90;;;;;;5119580;27;20450;-75
2023/07/24 01:21:10;;;;;;;1.90;1.80;;;18.50;99.90;;;;;;5140004;27;20438;-76
2023/07/24 01:23:48;;;;;;;2.17;1.67;;;18.40;99.90;;;;;;5132432;27;20485;-78
2023/07/24 01:26:16;;;;;;;2.07;1.47;;;18.30;99.90;;;;;;5123535;27;20489;-75
2023/07/24 01:28:43;;;;;;;4.03;1.93;;;18.20;99.90;;;;;;5115910;27;20538;-75
2023/07/24 01:31:11;;;;;;;4.93;2.50;;;18.10;99.90;;;;;;5123766;27;20434;-75
2023/07/24 01:33:38;;;;;;;2.33;1.83;;;18.00;99.90;;;;;;5119523;27;20490;-76
2023/07/24 01:36:07;;;;;;;1.90;1.70;;;18.00;99.90;;;;;;5120429;27;20442;-74
2023/07/24 01:38:36;;;;;;;3.10;2.47;;;17.90;99.90;;;;;;5125650;27;20526;-74
2023/07/24 01:41:04;;;;;;;3.70;1.67;;;17.90;99.90;;;;;;5122948;27;20446;-75
2023/07/24 01:43:33;;;;;;;3.40;2.23;;;17.80;99.90;;;;;;5123838;27;20489;-77
2023/07/24 01:46:00;;;;;;;2.13;1.93;;;17.80;99.90;;;;;;5121001;27;20963;-76
2023/07/24 01:48:26;;;;;;;8.97;3.20;;;17.80;99.90;;;;;;5114399;27;20465;-76
2023/07/24 01:50:53;;;;;;;2.97;2.27;;;17.80;99.90;;;;;;5124823;28;20514;-77
2023/07/24 01:53:20;;;;;;;3.47;3.10;;;17.80;99.90;;;;;;5123163;27;20530;-76
2023/07/24 01:55:47;;;;;;;4.00;2.10;;;17.90;99.90;;;;;;5125802;28;20864;-76
2023/07/24 01:58:14;;;;;;;3.10;2.80;;;17.90;99.90;;;;;;5122321;27;20500;-77
2023/07/24 02:00:43;;;;;;;3.80;2.27;;;18.00;99.90;;;;;;5123944;27;20955;-74
2023/07/24 02:03:10;;;;;;;4.93;2.07;;;18.00;99.90;;;;;;5124295;27;20477;-76
2023/07/24 02:05:36;;;;;;;2.10;2.00;;;17.90;99.90;;;;;;5123456;28;20485;-76
2023/07/24 02:08:04;;;;;;;1.77;1.67;;;17.70;99.90;;;;;;5115740;28;20459;-76
2023/07/24 02:10:30;;;;;;;2.20;2.03;;;17.60;99.90;;;;;;5123448;28;20534;-75
2023/07/24 02:12:57;;;;;;;2.83;2.50;;;17.40;99.90;;;;;;5118494;27;20450;-77
2023/07/24 02:15:24;;;;;;;2.13;1.80;;;17.20;99.90;;;;;;5125647;28;20464;-76
2023/07/24 02:17:53;;;;;;;3.67;2.47;;;17.00;99.90;;;;;;5120822;27;20462;-76
2023/07/24 02:20:19;;;;;;;3.53;2.30;;;17.10;99.90;;;;;;5119824;27;20467;-76
2023/07/24 02:22:46;;;;;;;3.77;3.43;;;16.90;99.90;;;;;;5118763;28;20497;-76
2023/07/24 02:25:13;;;;;;;4.90;1.87;;;16.90;99.90;;;;;;5122291;27;20530;-77
2023/07/24 02:27:40;;;;;;;2.20;2.00;;;16.90;99.90;;;;;;5122429;27;20487;-78
2023/07/24 02:30:08;;;;;;;3.77;2.37;;;17.00;99.90;;;;;;5122633;28;20528;-77
2023/07/24 02:32:35;;;;;;;2.53;2.33;;;17.00;99.90;;;;;;5123728;27;20512;-78
2023/07/24 02:35:04;;;;;;;2.80;2.13;;;17.00;99.90;;;;;;5126414;28;20512;-77
2023/07/24 02:37:31;;;;;;;2.20;2.00;;;17.10;99.90;;;;;;5120166;27;20458;-76
2023/07/24 02:40:00;;;;;;;4.13;2.40;;;17.10;99.90;;;;;;5127718;27;20507;-77
2023/07/24 02:42:27;;;;;;;4.03;2.80;;;17.00;99.90;;;;;;5126765;27;20465;-78
2023/07/24 02:44:54;;;;;;;3.63;3.30;;;17.00;99.90;;;;;;5125865;27;20510;-77
2023/07/24 02:47:21;;;;;;;1.93;1.80;;;16.90;99.90;;;;;;5125070;27;20467;-77
2023/07/24 02:49:48;;;;;;;3.07;2.80;;;16.80;99.90;;;;;;5125298;27;20490;-76
2023/07/24 02:52:16;;;;;;;2.70;2.40;;;16.70;99.90;;;;;;5128976;27;20591;-76
2023/07/24 02:54:43;;;;;;;3.73;3.43;;;16.90;99.90;;;;;;5125443;27;20552;-76
2023/07/24 02:57:10;;;;;;;3.07;2.60;;;16.90;99.90;;;;;;5129624;27;21026;-78
2023/07/24 02:59:37;;;;;;;2.20;2.03;;;16.80;99.90;;;;;;5118735;27;20525;-77
2023/07/24 03:02:05;;;;;;;5.07;3.10;;;16.80;99.90;;;;;;5129612;27;20528;-78
2023/07/24 03:04:32;;;;;;;3.97;3.00;;;16.60;99.90;;;;;;5120721;27;20495;-77
2023/07/24 03:06:59;;;;;;;3.10;2.30;;;16.50;99.90;;;;;;5128946;27;20449;-76
2023/07/24 03:09:27;;;;;;;4.27;3.07;;;16.40;99.90;;;;;;5123447;27;20518;-77
2023/07/24 03:11:54;;;;;;;3.20;2.87;;;16.40;99.90;;;;;;5127594;27;20471;-77
2023/07/24 03:14:21;;;;;;;3.20;2.67;;;16.30;99.90;;;;;;5123209;27;20445;-77
2023/07/24 03:16:48;;;;;;;2.70;2.37;;;16.40;99.90;;;;;;5120958;27;20486;-77
2023/07/24 03:19:17;;;;;;;16.67;3.70;;;16.40;99.90;;;;;;5128455;27;20511;-79
2023/07/24 03:21:44;;;;;;;3.67;2.40;;;16.30;99.90;;;;;;5126558;27;20963;-79
2023/07/24 03:24:11;;;;;;;3.63;2.97;;;16.20;99.90;;;;;;5128415;27;20474;-77
2023/07/24 03:26:39;;;;;;;3.40;3.10;;;16.20;99.90;;;;;;5126477;27;20456;-78
2023/07/24 03:29:06;;;;;;;3.37;2.93;;;16.20;99.90;;;;;;5128570;27;20527;-78
2023/07/24 03:31:33;;;;;;;3.37;2.87;;;16.20;99.90;;;;;;5127393;27;20512;-77
2023/07/24 03:34:00;;;;;;;3.40;2.80;;;16.30;99.90;;;;;;5121259;27;20863;-79
2023/07/24 03:36:27;;;;;;;2.63;2.30;;;16.30;99.90;;;;;;5126395;27;20491;-77
2023/07/24 03:38:54;;;;;;;3.90;3.10;;;16.30;99.90;;;;;;5128711;27;20451;-76
2023/07/24 03:41:21;;;;;;;3.20;3.00;;;16.30;99.90;;;;;;5125576;27;20933;-77
2023/07/24 03:43:49;;;;;;;2.17;1.80;;;16.30;99.90;;;;;;5125416;27;20536;-79
2023/07/24 03:46:16;;;;;;;3.97;2.43;;;16.30;99.90;;;;;;5126815;27;20451;-79
2023/07/24 03:48:43;;;;;;;6.23;3.07;;;16.40;99.90;;;;;;5124669;27;21016;-76
2023/07/24 03:51:10;;;;;;;3.97;2.57;;;16.50;99.90;;;;;;5123533;27;20443;-78
2023/07/24 03:53:37;;;;;;;4.50;2.63;;;16.40;99.90;;;;;;5121876;27;20568;-76
2023/07/24 03:56:04;;;;;;;3.40;2.53;;;16.50;99.90;;;;;;5128297;27;20479;-79
2023/07/24 03:58:31;;;;;;;3.47;3.10;;;16.60;99.90;;;;;;5123299;27;20506;-78
2023/07/24 04:00:59;;;;;;;3.40;2.80;;;16.60;99.90;;;;;;5124568;27;20486;-77
2023/07/24 04:03:27;;;;;;;4.40;4.00;;;16.70;99.90;;;;;;5120692;27;20514;-76
2023/07/24 04:05:54;;;;;;;3.73;3.40;;;16.70;99.90;;;;;;5123705;27;20887;-79
2023/07/24 04:08:20;;;;;;;3.07;2.10;;;16.80;99.90;;;;;;5121734;27;20497;-79
2023/07/24 04:10:47;;;;;;;7.43;2.90;;;16.90;99.90;;;;;;5124488;27;20449;-77
2023/07/24 04:13:14;;;;;;;3.13;2.83;;;16.90;99.90;;;;;;5123335;27;20473;-78
2023/07/24 04:15:41;;;;;;;1.83;1.67;;;16.70;99.90;;;;;;5126350;27;20446;-79
2023/07/24 04:18:10;;;;;;;2.90;2.57;;;16.80;99.90;;;;;;5124475;27;20465;-78
2023/07/24 04:20:37;;;;;;;3.20;2.90;;;16.80;99.90;;;;;;5123670;27;20442;-77
2023/07/24 04:23:03;;;;;;;3.07;2.00;;;16.80;99.90;;;;;;5123191;27;20461;-78
2023/07/24 04:25:30;;;;;;;3.83;2.10;;;16.90;99.90;;;;;;5124465;27;20487;-78
2023/07/24 04:27:57;;;;;;;3.50;2.60;;;17.00;99.90;;;;;;5120162;27;20864;-76
2023/07/24 04:30:24;;;;;;;3.20;2.23;;;17.00;99.90;;;;;;5122431;27;20517;-76
2023/07/24 04:32:52;;;;;;;4.27;2.87;;;17.00;99.90;;;;;;5126022;27;20457;-77
2023/07/24 04:35:20;;;;;;;3.90;3.23;;;17.10;99.90;;;;;;5124841;27;20461;-78
2023/07/24 04:37:47;;;;;;;3.63;2.27;;;17.10;99.90;;;;;;5123500;27;20513;-76
2023/07/24 04:40:14;;;;;;;3.10;2.50;;;17.10;99.90;;;;;;5123802;27;20466;-78
2023/07/24 04:42:41;;;;;;;2.67;2.47;;;17.30;99.90;;;;;;5126387;27;20470;-77
2023/07/24 04:45:09;;;;;;;2.80;2.40;;;17.60;99.90;;;;;;5126252;27;20516;-79
2023/07/24 04:47:38;;;;;;;4.40;2.70;;;17.70;99.90;;;;;;5125410;27;20469;-79
2023/07/24 04:50:06;;;;;;;3.30;2.50;;;17.80;99.90;;;;;;5123819;27;20527;-78
2023/07/24 04:52:35;;;;;;;3.03;2.77;;;17.80;99.90;;;;;;5120478;27;20461;-77
2023/07/24 04:55:02;;;;;;;5.27;2.43;;;18.00;99.90;;;;;;5122512;27;20475;-78
2023/07/24 04:57:29;;;;;;;2.40;2.20;;;18.20;99.90;;;;;;5126576;27;20460;-79
2023/07/24 04:59:56;;;;;;;3.50;2.30;;;18.50;99.90;;;;;;5124336;27;20454;-80
2023/07/24 05:02:23;;;;;;;4.00;3.50;;;18.80;99.90;;;;;;5121731;27;20485;-78
2023/07/24 05:04:50;;;;;;;4.90;3.50;;;19.10;99.90;;;;;;5124219;27;20494;-77
2023/07/24 05:07:17;;;;;;;5.80;4.50;;;19.40;99.90;;;;;;5121743;27;20458;-78
2023/07/24 05:09:45;;;;;;;3.43;2.80;;;19.40;99.90;;;;;;5125334;27;20446;-77
2023/07/24 05:12:12;;;;;;;3.10;2.80;;;19.20;99.90;;;;;;5121220;27;20537;-77
2023/07/24 05:14:39;;;;;;;4.90;3.03;;;19.00;99.90;;;;;;5120051;27;20850;-75
2023/07/24 05:17:06;;;;;;;6.40;3.23;;;18.70;99.90;;;;;;5119964;27;20462;-76
2023/07/24 05:19:33;;;;;;;2.80;2.17;;;18.70;99.90;;;;;;5120314;27;20546;-75
2023/07/24 05:22:00;;;;;;;4.00;2.33;;;18.60;99.90;;;;;;5121126;27;20958;-76
2023/07/24 05:24:27;;;;;;;3.30;2.50;;;18.50;99.90;;;;;;5120943;27;20567;-76
2023/07/24 05:26:55;;;;;;;4.20;3.43;;;18.40;99.90;;;;;;5120675;27;20487;-76
2023/07/24 05:29:22;;;;;;;4.60;2.70;;;18.40;99.90;;;;;;5121373;27;21022;-76
2023/07/24 05:31:49;;;;;;;8.13;2.77;;;18.40;99.90;;;;;;5115849;27;20462;-76
2023/07/24 05:34:16;;;;;;;3.37;2.33;;;18.50;99.90;;;;;;5119648;27;20456;-76
2023/07/24 05:36:43;;;;;;;3.73;2.80;;;18.50;99.90;;;;;;5122452;27;20906;-76
2023/07/24 05:39:10;;;;;;;5.30;3.50;;;18.50;99.90;;;;;;5122146;27;20453;-76
2023/07/24 05:41:39;;;;;;;4.87;4.30;;;18.80;99.90;;;;;;5118388;27;20526;-77
2023/07/24 05:44:07;;;;;;;3.13;2.80;;;18.80;99.90;;;;;;5121762;28;20500;-76
2023/07/24 05:46:34;;;;;;;4.07;3.63;;;19.10;99.90;;;;;;5121068;27;20465;-75
2023/07/24 05:49:01;;;;;;;3.07;2.77;;;19.30;99.90;;;;;;5118954;28;20554;-77
2023/07/24 05:51:29;;;;;;;5.60;3.63;;;19.50;99.90;;;;;;5124285;28;20455;-77
2023/07/24 05:53:56;;;;;;;2.90;2.70;;;19.90;99.90;;;;;;5121515;27;20808;-76
2023/07/24 05:56:23;;;;;;;5.37;4.13;;;19.80;99.90;;;;;;5123821;27;20469;-77
2023/07/24 05:58:51;;;;;;;5.23;2.87;;;19.90;99.90;;;;;;5120759;27;20499;-76
2023/07/24 06:01:19;;;;;;;3.43;2.83;;;20.10;99.90;;;;;;5124238;27;20534;-74
2023/07/24 06:03:46;;;;;;;3.03;2.30;;;20.30;99.90;;;;;;5119401;27;20454;-75
2023/07/24 06:06:13;;;;;;;2.93;2.70;;;20.50;99.90;;;;;;5120993;28;20588;-76
2023/07/24 06:08:40;;;;;;;2.90;2.40;;;20.50;99.90;;;;;;5121706;27;20458;-77
2023/07/24 06:11:07;;;;;;;5.57;3.80;;;20.30;99.90;;;;;;5122366;27;20457;-76
2023/07/24 06:13:34;;;;;;;4.03;2.30;;;20.20;99.90;;;;;;5124000;27;20545;-76
2023/07/24 06:16:01;;;;;;;5.87;2.10;;;20.00;99.90;;;;;;5129371;27;20485;-77
2023/07/24 06:18:29;;;;;;;3.50;3.20;;;20.20;99.90;;;;;;5126635;27;20810;-77
2023/07/24 06:20:56;;;;;;;3.53;2.60;;;20.50;99.90;;;;;;5127312;27;21032;-76
2023/07/24 06:23:23;;;;;;;2.67;2.47;;;20.80;99.90;;;;;;5123615;27;20552;-77
2023/07/24 06:25:51;;;;;;;1.97;1.83;;;21.10;99.90;;;;;;5123102;27;20505;-77
2023/07/24 06:28:18;;;;;;;3.40;3.10;;;21.50;99.90;;;;;;5124060;27;20565;-79
2023/07/24 06:30:45;;;;;;;3.23;2.70;;;21.60;99.90;;;;;;5127372;27;20501;-77
2023/07/24 06:33:12;;;;;;;5.90;3.10;;;21.70;99.90;;;;;;5128253;27;20461;-76
2023/07/24 06:35:40;;;;;;;3.60;3.30;;;21.70;99.90;;;;;;5122836;27;20987;-76
2023/07/24 06:38:08;;;;;;;3.70;2.10;;;21.40;99.90;;;;;;5126907;27;20455;-78
2023/07/24 06:40:35;;;;;;;6.80;3.30;;;21.30;99.90;;;;;;5125488;27;20493;-78
2023/07/24 06:43:02;;;;;;;4.80;2.60;;;21.30;99.90;;;;;;5124902;27;20860;-79
2023/07/24 06:45:29;;;;;;;2.90;2.17;;;21.90;99.90;;;;;;5123019;27;21078;-79
2023/07/24 06:47:56;;;;;;;3.20;2.63;;;22.50;99.90;;;;;;5122325;27;20494;-77
2023/07/24 06:50:23;;;;;;;3.77;2.60;;;22.70;99.90;;;;;;5122450;27;21344;-76
2023/07/24 06:52:53;;;;;;;3.10;2.90;;;22.50;99.90;;;;;;5129929;27;20479;-76
2023/07/24 06:55:20;;;;;;;2.20;2.00;;;22.20;99.90;;;;;;5123911;27;21003;-76
2023/07/24 06:57:47;;;;;;;2.83;2.57;;;22.20;99.90;;;;;;5127085;27;20480;-77
2023/07/24 07:00:15;;;;;;;2.73;2.53;;;22.30;99.90;;;;;;5127899;27;20539;-77
2023/07/24 07:02:42;;;;;;;3.30;3.10;;;22.50;99.90;;;;;;5124113;27;20943;-77
2023/07/24 07:05:09;;;;;;;4.40;2.73;;;22.60;99.90;;;;;;5128577;27;20513;-79
2023/07/24 07:07:36;;;;;;;2.50;2.20;;;22.60;99.90;;;;;;5122272;27;20504;-77
2023/07/24 07:10:05;;;;;;;3.03;1.77;;;23.00;99.90;;;;;;5127722;27;20476;-77
2023/07/24 07:12:32;;;;;;;3.70;2.20;;;23.50;99.90;;;;;;5124471;27;20469;-79
2023/07/24 07:14:59;;;;;;;3.50;2.67;;;23.40;99.90;;;;;;5121745;27;20470;-78
2023/07/24 07:17:26;;;;;;;3.33;3.00;;;23.50;99.90;;;;;;5125418;27;21105;-77
2023/07/24 07:19:56;;;;;;;10.80;3.60;;;23.40;99.90;;;;;;5122575;27;20445;-79
2023/07/24 07:22:23;;;;;;;3.40;3.10;;;23.30;99.90;;;;;;5127178;27;20946;-77
2023/07/24 07:24:50;;;;;;;2.40;2.20;;;23.30;99.90;;;;;;5119410;27;20516;-78
2023/07/24 07:27:18;;;;;;;4.83;2.87;;;23.40;99.90;;;;;;5127147;27;20535;-77
2023/07/24 07:29:45;;;;;;;5.13;2.67;;;23.50;99.90;;;;;;5126202;27;20512;-78
2023/07/24 07:32:12;;;;;;;4.37;3.30;;;23.70;99.90;;;;;;5119098;27;20532;-77
2023/07/24 07:34:39;;;;;;;2.73;2.53;;;23.70;99.90;;;;;;5125347;27;20486;-77
2023/07/24 07:37:06;;;;;;;2.70;2.50;;;23.40;99.90;;;;;;5126179;27;20451;-76
2023/07/24 07:39:33;;;;;;;2.30;2.10;;;23.80;99.90;;;;;;5126357;27;20553;-77
2023/07/24 07:42:00;;;;;;;3.83;2.23;;;24.20;99.90;;;;;;5123924;27;20476;-78
2023/07/24 07:44:29;;;;;;;3.80;3.30;;;24.60;99.90;;;;;;5124833;27;20509;-77
2023/07/24 07:46:56;;;;;;;6.30;2.93;;;24.60;99.90;;;;;;5121776;27;20973;-78
2023/07/24 07:49:23;;;;;;;2.80;2.60;;;25.00;99.90;;;;;;5123868;27;20479;-79
2023/07/24 07:51:50;;;;;;;6.27;2.93;;;25.20;99.90;;;;;;5123811;27;21327;-79
2023/07/24 07:54:17;;;;;;;4.40;3.00;;;25.40;99.90;;;;;;5124384;27;20480;-76
2023/07/24 07:56:44;;;;;;;2.23;2.03;;;25.60;99.90;;;;;;5126270;27;20452;-77
2023/07/24 07:59:11;;;;;;;5.40;3.47;;;25.30;99.30;;;;;;5127307;27;20463;-77
2023/07/24 08:01:40;;;;;;;4.30;2.80;;;25.10;99.90;;;;;;5122532;27;20541;-77
2023/07/24 08:04:07;;;;;;;3.40;2.33;;;25.00;99.90;;;;;;5121100;27;20466;-76
2023/07/24 08:06:34;;;;;;;3.77;3.40;;;24.90;99.10;;;;;;5128465;27;20512;-77
2023/07/24 08:09:01;;;;;;;3.50;2.73;;;24.90;99.70;;;;;;5125459;27;20444;-78
2023/07/24 08:11:28;;;;;;;3.27;2.70;;;25.10;99.90;;;;;;5124698;27;20444;-76
2023/07/24 08:13:55;;;;;;;12.00;2.87;;;25.40;99.40;;;;;;5123436;27;20488;-78
2023/07/24 08:16:22;;;;;;;5.37;3.10;;;25.50;98.20;;;;;;5125169;27;20526;-77
2023/07/24 08:18:51;;;;;;;2.50;1.80;;;25.90;97.40;;;;;;5125027;27;20489;-77
2023/07/24 08:21:18;;;;;;;3.97;3.27;;;26.20;97.70;;;;;;5124539;27;20576;-77
2023/07/24 08:23:45;;;;;;;3.20;2.90;;;26.60;96.10;;;;;;5127206;27;20499;-77
2023/07/24 08:26:12;;;;;;;2.43;2.23;;;27.00;95.00;;;;;;5125039;27;20508;-77
2023/07/24 08:28:42;;;;;;;4.13;2.87;;;27.10;95.50;;;;;;5124478;27;20514;-77
2023/07/24 08:31:09;;;;;;;3.33;2.27;;;27.10;95.60;;;;;;5126118;27;20444;-77
2023/07/24 08:33:36;;;;;;;4.80;2.87;;;26.70;95.30;;;;;;5124786;27;20456;-77
2023/07/24 08:36:06;;;;;;;2.90;2.40;;;27.10;95.10;;;;;;5120037;27;20484;-77
2023/07/24 08:38:33;;;;;;;3.90;3.07;;;27.10;94.20;;;;;;5119781;27;20467;-76
2023/07/24 08:41:04;;;;;;;5.07;3.40;;;27.20;91.50;;;;;;5125210;27;20479;-77
2023/07/24 08:43:32;;;;;;;4.07;2.90;;;27.60;92.00;;;;;;5121293;27;20474;-77
2023/07/24 08:46:02;;;;;;;4.13;3.00;;;28.00;90.10;;;;;;5124632;27;20483;-79
2023/07/24 08:48:33;;;;;;;4.13;3.07;;;28.40;87.30;;;;;;5122269;27;20456;-78
2023/07/24 08:51:01;;;;;;;4.10;3.47;;;28.50;85.40;;;;;;5124594;27;20708;-77
2023/07/24 08:53:30;;;;;;;4.70;4.00;;;28.90;87.20;;;;;;5123903;27;20438;-77
2023/07/24 08:55:58;;;;;;;5.00;3.60;;;29.10;84.80;;;;;;5124348;27;20830;-77
2023/07/24 08:58:25;;;;;;;3.43;3.13;;;29.30;77.60;;;;;;5126739;27;20459;-78
2023/07/24 09:00:52;;;;;;;4.13;3.50;;;29.00;76.30;;;;;;5123035;27;20509;-77
2023/07/24 09:03:19;;;;;;;2.90;2.60;;;28.90;75.50;;;;;;5120357;27;20469;-78
2023/07/24 09:05:46;;;;;;;3.77;3.47;;;28.80;82.30;;;;;;5122907;27;20487;-77
2023/07/24 09:08:14;;;;;;;4.13;3.03;;;28.60;80.60;;;;;;5125314;27;20974;-77
2023/07/24 09:10:42;;;;;;;4.07;3.13;;;28.60;79.40;;;;;;5122685;27;20448;-78
2023/07/24 09:13:12;;;;;;;3.97;2.60;;;28.60;80.80;;;;;;5124787;27;20488;-78
2023/07/24 09:15:43;;;;;;;4.03;3.63;;;29.20;81.60;;;;;;5123154;27;21042;-77
2023/07/24 09:18:10;;;;;;;3.10;2.80;;;28.90;86.40;;;;;;5121486;27;20489;-76
2023/07/24 09:20:42;;;;;;;3.63;3.10;;;29.10;82.50;;;;;;5122925;27;20481;-77
2023/07/24 09:23:09;;;;;;;3.17;2.87;;;29.30;76.70;;;;;;5119184;27;20529;-77
2023/07/24 09:25:38;;;;;;;5.03;3.80;;;29.40;76.90;;;;;;5123999;27;20484;-78
2023/07/24 09:28:12;;;;;;;6.60;3.53;;;29.20;78.00;;;;;;5123948;27;20473;-76
2023/07/24 09:30:39;;;;;;;3.73;3.43;;;29.40;78.40;;;;;;5125233;27;20448;-79
2023/07/24 09:33:07;;;;;;;3.67;3.23;;;29.30;79.60;;;;;;5125537;27;20895;-77
2023/07/24 09:35:34;;;;;;;5.50;2.90;;;29.30;76.80;;;;;;5125246;27;20449;-76
2023/07/24 09:38:06;;;;;;;4.97;4.47;;;28.90;75.30;;;;;;5122465;27;20799;-77
2023/07/24 09:40:41;;;;;;;3.73;3.10;;;28.90;77.50;;;;;;5123751;27;20506;-77
2023/07/24 09:43:23;;;;;;;4.77;3.40;;;28.80;78.90;;;;;;5124292;27;20527;-77
2023/07/24 09:45:51;;;;;;;5.10;3.20;;;29.20;75.10;;;;;;5124710;28;20612;-77
2023/07/24 09:48:20;;;;;;;3.13;2.83;;;29.40;78.70;;;;;;5114492;27;20465;-77
2023/07/24 09:50:49;;;;;;;3.67;3.30;;;29.40;78.70;;;;;;5123648;27;20947;-79
2023/07/24 09:53:21;;;;;;;4.77;3.03;;;29.30;83.10;;;;;;5118774;27;20465;-78
2023/07/24 09:55:53;;;;;;;4.53;3.87;;;29.10;78.30;;;;;;5120901;28;20473;-78
2023/07/24 09:58:23;;;;;;;3.97;3.60;;;29.20;80.10;;;;;;5123155;27;20524;-77
2023/07/24 10:00:50;;;;;;;3.87;3.50;;;29.10;78.50;;;;;;5124026;27;20567;-76
2023/07/24 10:03:17;;;;;;;5.00;4.00;;;29.10;79.70;;;;;;5124576;28;20460;-77
2023/07/24 10:05:50;;;;;;;3.93;3.53;;;28.80;80.80;;;;;;5121207;28;20484;-76
2023/07/24 10:08:19;;;;;;;3.10;2.77;;;29.10;82.40;;;;;;5117595;28;20468;-80
2023/07/24 10:10:46;;;;;;;3.67;3.33;;;29.00;80.70;;;;;;5121722;27;20469;-76
2023/07/24 10:13:16;;;;;;;3.40;3.10;;;28.90;79.60;;;;;;5122019;28;20450;-76
2023/07/24 10:15:45;;;;;;;2.97;2.67;;;29.00;78.70;;;;;;5118065;27;20531;-76
2023/07/24 10:18:11;;;;;;;4.13;3.67;;;29.10;80.20;;;;;;5120847;27;20448;-77
2023/07/24 10:20:40;;;;;;;5.67;4.37;;;29.10;79.00;;;;;;5120498;28;20558;-77
2023/07/24 10:23:09;;;;;;;7.70;3.60;;;29.20;79.30;;;;;;5117643;28;20450;-77
2023/07/24 10:25:41;;;;;;;4.83;3.30;;;29.20;77.10;;;;;;5121012;28;21122;-76
2023/07/24 10:28:11;;;;;;;5.10;3.93;;;28.90;77.80;;;;;;5122940;27;21057;-76
2023/07/24 10:30:38;;;;;;;4.63;3.47;;;28.80;77.60;;;;;;5124536;28;20470;-76
2023/07/24 10:33:11;;;;;;;6.80;3.20;;;29.20;76.70;;;;;;5121038;28;20458;-76
2023/07/24 10:35:43;;;;;;;4.17;3.60;;;29.50;77.60;;;;;;5122097;28;20492;-77
2023/07/24 10:38:11;;;;;;;3.80;3.17;;;29.70;75.80;;;;;;5124469;27;20507;-77
2023/07/24 10:40:38;;;;;;;3.63;3.10;;;29.60;74.50;;;;;;5124658;28;20528;-78
2023/07/24 10:43:09;;;;;;;4.47;3.40;;;29.20;76.10;;;;;;5120531;27;21211;-76
2023/07/24 10:45:49;;;;;;;3.30;3.03;;;29.60;77.10;;;;;;5122096;27;20485;-77
2023/07/24 10:48:18;;;;;;;4.00;3.10;;;29.50;74.30;;;;;;5116901;27;20465;-77
2023/07/24 10:50:47;;;;;;;3.53;2.77;;;29.60;78.70;;;;;;5120824;27;20924;-79
2023/07/24 10:53:16;;;;;;;6.37;3.70;;;29.80;76.90;;;;;;5120953;28;20472;-80
2023/07/24 10:55:43;;;;;;;6.30;4.17;;;29.80;76.20;;;;;;5124146;27;20432;-78
2023/07/24 10:58:14;;;;;;;3.83;3.53;;;29.90;79.80;;;;;;5120662;28;20510;-76
2023/07/24 11:00:41;;;;;;;4.00;3.00;;;29.90;76.10;;;;;;5123813;27;20464;-79
2023/07/24 11:03:10;;;;;;;4.47;4.07;;;29.60;74.80;;;;;;5124211;27;21174;-76
2023/07/24 11:05:40;;;;;;;4.87;3.90;;;29.40;75.60;;;;;;5126361;27;20535;-76
2023/07/24 11:08:13;;;;;;;5.30;4.80;;;29.40;75.70;;;;;;5124849;27;20578;-76
2023/07/24 11:10:45;;;;;;;5.63;3.73;;;29.50;79.00;;;;;;5125358;27;20443;-76
2023/07/24 11:13:12;;;;;;;7.70;4.57;;;29.30;76.60;;;;;;5123066;27;20544;-77
2023/07/24 11:15:39;;;;;;;5.57;3.90;;;29.10;77.80;;;;;;5125031;27;20492;-79
2023/07/24 11:18:08;;;;;;;4.53;3.53;;;29.00;77.80;;;;;;5123933;27;20562;-76
2023/07/24 11:20:38;;;;;;;7.30;4.20;;;28.90;77.00;;;;;;5123126;27;20472;-77
2023/07/24 11:23:05;;;;;;;5.43;4.80;;;29.00;79.50;;;;;;5126787;27;20980;-75
2023/07/24 11:25:33;;;;;;;5.43;4.60;;;29.20;77.10;;;;;;5122495;27;21045;-76
2023/07/24 11:28:00;;;;;;;4.80;3.87;;;29.20;70.00;;;;;;5125525;27;20571;-76
2023/07/24 11:30:27;;;;;;;4.30;3.90;;;29.50;72.60;;;;;;5128118;27;20540;-76
2023/07/24 11:32:54;;;;;;;5.83;3.30;;;29.30;75.40;;;;;;5120752;27;20863;-76
2023/07/24 11:35:22;;;;;;;4.40;4.00;;;29.10;71.30;;;;;;5125448;27;20472;-76
2023/07/24 11:37:50;;;;;;;5.80;3.40;;;29.20;66.30;;;;;;5120624;27;20453;-75
2023/07/24 11:40:19;;;;;;;4.47;3.43;;;29.20;70.80;;;;;;5125868;27;20469;-79
2023/07/24 11:42:48;;;;;;;7.77;4.67;;;28.70;71.00;;;;;;5124979;27;20450;-76
2023/07/24 11:45:15;;;;;;;4.90;4.50;;;28.80;71.60;;;;;;5122469;27;20453;-80
2023/07/24 11:47:44;;;;;;;4.80;4.23;;;28.90;71.30;;;;;;5126832;27;20539;-76
2023/07/24 11:50:11;;;;;;;8.60;5.40;;;29.50;71.60;;;;;;5123396;27;20499;-76
2023/07/24 11:52:43;;;;;;;4.63;4.17;;;29.50;68.60;;;;;;5128275;27;20476;-76
2023/07/24 11:55:12;;;;;;;6.10;3.87;;;29.50;69.80;;;;;;5126450;27;20445;-76
2023/07/24 11:57:39;;;;;;;4.57;3.97;;;29.30;69.20;;;;;;5124530;27;20468;-76
2023/07/24 12:00:18;;;;;;;5.77;4.00;;;29.40;71.40;;;;;;5128869;27;21051;-79
2023/07/24 12:02:45;;;;;;;5.83;4.30;;;29.60;71.80;;;;;;5125617;27;20440;-76
2023/07/24 12:05:12;;;;;;;6.10;4.20;;;29.20;70.90;;;;;;5124220;27;20959;-78
2023/07/24 12:07:39;;;;;;;4.83;4.10;;;29.10;72.80;;;;;;5123851;27;20541;-75
2023/07/24 12:10:08;;;;;;;6.20;4.17;;;29.10;70.90;;;;;;5122494;27;20822;-76
2023/07/24 12:12:40;;;;;;;6.43;4.67;;;29.00;71.00;;;;;;5122002;27;20457;-79
2023/07/24 12:15:11;;;;;;;4.80;3.80;;;28.90;72.10;;;;;;5123899;27;20492;-76
2023/07/24 12:17:38;;;;;;;4.63;4.00;;;28.80;71.90;;;;;;5121430;27;21109;-76
2023/07/24 12:20:08;;;;;;;5.90;5.10;;;28.80;71.90;;;;;;5123903;27;20512;-76
2023/07/24 12:22:35;;;;;;;4.70;4.20;;;28.60;72.50;;;;;;5124540;27;20443;-75
2023/07/24 12:25:02;;;;;;;5.30;4.37;;;28.70;71.80;;;;;;5125208;27;20441;-77
2023/07/24 12:27:28;;;;;;;7.23;4.20;;;28.80;69.20;;;;;;5118558;27;20524;-76
2023/07/24 12:29:57;;;;;;;3.73;3.43;;;28.90;71.20;;;;;;5121356;27;20488;-78
2023/07/24 12:32:24;;;;;;;5.80;4.10;;;29.10;70.20;;;;;;5120366;27;20461;-76
2023/07/24 12:34:52;;;;;;;4.60;4.20;;;28.90;68.30;;;;;;5125349;27;20520;-76
2023/07/24 12:37:20;;;;;;;5.40;3.90;;;28.90;69.50;;;;;;5127599;27;20540;-76
2023/07/24 12:39:47;;;;;;;5.10;3.80;;;29.10;69.10;;;;;;5124798;27;20468;-76
2023/07/24 12:42:15;;;;;;;6.13;4.50;;;29.10;68.70;;;;;;5127377;27;20478;-76
2023/07/24 12:44:43;;;;;;;7.80;4.33;;;29.00;67.50;;;;;;5123620;27;20553;-76
2023/07/24 12:47:12;;;;;;;4.47;4.03;;;29.20;67.40;;;;;;5125678;27;20487;-79
2023/07/24 12:49:39;;;;;;;4.60;3.83;;;29.10;66.50;;;;;;5127972;27;20453;-76